createdAt,value
2018-10-16T00:01:34.724Z,14.32
2018-10-16T00:04:03.307Z,14.30
2018-10-16T00:06:31.883Z,14.23
2018-10-16T00:09:00.491Z,14.13
2018-10-16T00:11:29.267Z,14.13
2018-10-16T00:13:57.835Z,14.16
2018-10-16T00:16:26.527Z,14.18
2018-10-16T00:18:55.109Z,14.20
2018-10-16T00:21:23.688Z,14.22
2018-10-16T00:23:52.644Z,14.22
2018-10-16T00:26:21.227Z,14.18
2018-10-16T00:28:49.811Z,14.20
2018-10-16T00:31:18.500Z,14.17
2018-10-16T00:33:47.105Z,14.15
2018-10-16T00:36:15.676Z,14.11
2018-10-16T00:38:44.303Z,14.11
2018-10-16T00:41:12.895Z,14.11
2018-10-16T00:43:41.487Z,14.10
2018-10-16T00:46:10.081Z,14.06
2018-10-16T00:48:38.679Z,14.04
2018-10-16T00:51:07.262Z,14.04
2018-10-16T00:53:36.181Z,14.02
2018-10-16T00:56:04.773Z,13.99
2018-10-16T00:58:33.340Z,13.95
2018-10-16T01:01:01.956Z,13.90
2018-10-16T01:03:30.552Z,13.93
2018-10-16T01:05:59.340Z,13.93
2018-10-16T01:08:27.932Z,13.95
2018-10-16T01:10:56.519Z,13.91
2018-10-16T01:13:25.084Z,13.87
2018-10-16T01:15:53.705Z,13.84
2018-10-16T01:18:22.304Z,13.85
2018-10-16T01:20:50.868Z,13.83
2018-10-16T01:23:19.796Z,13.82
2018-10-16T01:25:48.385Z,13.80
2018-10-16T01:28:16.974Z,13.76
2018-10-16T01:30:45.687Z,13.79
2018-10-16T01:33:14.245Z,13.81
2018-10-16T01:35:42.819Z,13.82
2018-10-16T01:38:11.393Z,13.84
2018-10-16T01:40:39.959Z,13.79
2018-10-16T01:43:08.552Z,13.80
2018-10-16T01:45:37.228Z,13.81
2018-10-16T01:48:06.130Z,13.84
2018-10-16T01:50:34.700Z,13.84
2018-10-16T01:53:03.699Z,13.85
2018-10-16T01:55:32.268Z,13.81
2018-10-16T01:58:00.848Z,13.78
2018-10-16T02:00:29.524Z,13.72
2018-10-16T02:02:58.131Z,13.72
2018-10-16T02:05:26.728Z,13.70
2018-10-16T02:07:55.664Z,13.67
2018-10-16T02:10:24.237Z,13.64
2018-10-16T02:12:52.800Z,13.62
2018-10-16T02:15:21.655Z,13.62
2018-10-16T02:17:50.287Z,13.55
2018-10-16T02:20:18.904Z,13.56
2018-10-16T02:22:47.531Z,13.53
2018-10-16T02:25:16.123Z,13.54
2018-10-16T02:27:44.704Z,13.53
2018-10-16T02:30:13.555Z,13.54
2018-10-16T02:32:42.115Z,13.56
2018-10-16T02:35:11.907Z,13.55
2018-10-16T02:37:40.604Z,13.60
2018-10-16T02:40:10.407Z,13.59
2018-10-16T02:42:39.840Z,13.55
2018-10-16T02:45:10.288Z,13.54
2018-10-16T02:47:39.477Z,13.48
2018-10-16T02:50:08.980Z,13.47
2018-10-16T02:52:37.956Z,13.51
2018-10-16T02:55:08.201Z,13.50
2018-10-16T02:57:36.800Z,13.53
2018-10-16T03:00:05.569Z,13.42
2018-10-16T03:02:34.256Z,13.36
2018-10-16T03:05:02.821Z,13.34
2018-10-16T03:07:31.410Z,13.30
2018-10-16T03:10:00.281Z,13.23
2018-10-16T03:12:28.864Z,13.19
2018-10-16T03:14:57.440Z,13.16
2018-10-16T03:17:26.116Z,13.17
2018-10-16T03:19:54.723Z,13.17
2018-10-16T03:22:23.420Z,13.16
2018-10-16T03:24:52.052Z,13.14
2018-10-16T03:27:20.659Z,13.13
2018-10-16T03:29:49.227Z,13.10
2018-10-16T03:32:17.832Z,13.12
2018-10-16T03:34:46.427Z,13.20
2018-10-16T03:37:14.993Z,13.20
2018-10-16T03:39:43.604Z,13.19
2018-10-16T03:42:12.188Z,13.21
2018-10-16T03:44:40.778Z,13.16
2018-10-16T03:47:09.444Z,13.11
2018-10-16T03:49:38.004Z,13.09
2018-10-16T03:52:06.619Z,13.11
2018-10-16T03:54:35.240Z,13.07
2018-10-16T03:57:03.884Z,13.06
2018-10-16T03:59:32.448Z,13.05
2018-10-16T04:02:01.059Z,13.06
2018-10-16T04:04:29.657Z,13.04
2018-10-16T04:06:58.276Z,13.02
2018-10-16T04:09:26.867Z,13.02
2018-10-16T04:11:55.507Z,12.92
2018-10-16T04:14:24.212Z,12.91
2018-10-16T04:16:52.840Z,12.86
2018-10-16T04:19:21.464Z,12.80
2018-10-16T04:21:50.039Z,12.70
2018-10-16T04:24:18.735Z,12.67
2018-10-16T04:26:47.304Z,12.60
2018-10-16T04:29:16.113Z,12.59
2018-10-16T04:31:44.652Z,12.59
2018-10-16T04:34:13.215Z,12.56
2018-10-16T04:36:41.790Z,12.53
2018-10-16T04:39:12.563Z,12.50
2018-10-16T04:41:41.210Z,12.49
2018-10-16T04:44:09.773Z,12.48
2018-10-16T04:46:38.547Z,12.49
2018-10-16T04:49:07.351Z,12.54
2018-10-16T04:51:35.948Z,12.53
2018-10-16T04:54:04.662Z,12.52
2018-10-16T04:56:33.463Z,12.54
2018-10-16T04:59:02.042Z,12.55
2018-10-16T05:01:30.676Z,12.54
2018-10-16T05:03:59.305Z,12.55
2018-10-16T05:06:27.853Z,12.55
2018-10-16T05:08:56.471Z,12.52
2018-10-16T05:11:25.052Z,12.50
2018-10-16T05:13:53.616Z,12.50
2018-10-16T05:16:22.315Z,12.55
2018-10-16T05:18:50.940Z,12.57
2018-10-16T05:21:19.511Z,12.59
2018-10-16T05:23:48.193Z,12.62
2018-10-16T05:26:16.808Z,12.56
2018-10-16T05:28:45.368Z,12.48
2018-10-16T05:31:14.142Z,12.47
2018-10-16T05:33:42.642Z,12.48
2018-10-16T05:36:11.216Z,12.54
2018-10-16T05:38:39.844Z,12.61
2018-10-16T05:41:08.801Z,12.70
2018-10-16T05:43:37.368Z,12.69
2018-10-16T05:46:06.303Z,12.60
2018-10-16T05:48:34.895Z,12.59
2018-10-16T05:51:03.463Z,12.57
2018-10-16T05:53:32.064Z,12.55
2018-10-16T05:56:03.522Z,12.48
2018-10-16T05:58:32.315Z,12.54
2018-10-16T06:01:00.926Z,12.47
2018-10-16T06:03:29.520Z,12.46
2018-10-16T06:05:58.127Z,12.41
2018-10-16T06:08:26.691Z,12.38
2018-10-16T06:10:55.322Z,12.42
2018-10-16T06:13:23.903Z,12.41
2018-10-16T06:15:52.514Z,12.42
2018-10-16T06:18:21.040Z,12.51
2018-10-16T06:20:49.676Z,12.54
2018-10-16T06:23:18.235Z,12.54
2018-10-16T06:25:46.831Z,12.58
2018-10-16T06:28:22.136Z,12.63
2018-10-16T06:30:50.728Z,12.74
2018-10-16T06:33:23.407Z,12.74
2018-10-16T06:35:51.948Z,12.80
2018-10-16T06:38:20.590Z,12.69
2018-10-16T06:40:49.710Z,12.77
2018-10-16T06:43:18.197Z,12.76
2018-10-16T06:45:47.053Z,12.73
2018-10-16T06:48:15.920Z,12.79
2018-10-16T06:50:44.236Z,12.85
2018-10-16T06:53:12.903Z,12.87
2018-10-16T06:55:41.684Z,12.96
2018-10-16T06:58:10.252Z,13.07
2018-10-16T07:00:38.839Z,13.23
2018-10-16T07:03:07.608Z,13.31
2018-10-16T07:05:36.184Z,13.54
2018-10-16T07:08:04.768Z,13.82
2018-10-16T07:10:33.419Z,13.99
2018-10-16T07:13:02.392Z,14.36
2018-10-16T07:15:30.971Z,14.71
2018-10-16T07:17:59.684Z,14.96
2018-10-16T07:20:28.290Z,15.10
2018-10-16T07:22:56.855Z,15.30
2018-10-16T07:25:25.706Z,15.42
2018-10-16T07:27:54.296Z,15.41
2018-10-16T07:30:23.036Z,15.30
2018-10-16T07:32:51.628Z,15.26
2018-10-16T07:35:20.219Z,15.32
2018-10-16T07:37:48.855Z,15.46
2018-10-16T07:40:17.392Z,15.61
2018-10-16T07:42:45.957Z,15.78
2018-10-16T07:45:14.550Z,15.93
2018-10-16T07:47:43.148Z,16.00
2018-10-16T07:50:12.733Z,16.08
2018-10-16T07:52:41.327Z,16.33
2018-10-16T07:55:12.461Z,16.47
2018-10-16T07:57:41.510Z,16.56
2018-10-16T08:00:11.801Z,16.77
2018-10-16T08:02:41.267Z,16.92
2018-10-16T08:05:11.096Z,17.12
2018-10-16T08:07:40.423Z,17.28
2018-10-16T08:10:10.392Z,17.47
2018-10-16T08:12:39.004Z,17.68
2018-10-16T08:15:08.409Z,17.83
2018-10-16T08:17:36.991Z,17.96
2018-10-16T08:20:05.796Z,18.07
2018-10-16T08:22:34.380Z,18.28
2018-10-16T08:25:02.936Z,18.40
2018-10-16T08:27:31.652Z,18.62
2018-10-16T08:30:00.307Z,18.78
2018-10-16T08:32:28.820Z,18.97
2018-10-16T08:34:58.128Z,19.12
2018-10-16T08:37:37.939Z,19.23
2018-10-16T08:40:07.204Z,19.46
2018-10-16T08:43:49.242Z,19.59
2018-10-16T08:46:29.672Z,19.74
2018-10-16T08:49:09.984Z,19.85
2018-10-16T08:51:43.507Z,19.99
2018-10-16T08:54:12.083Z,20.16
2018-10-16T08:56:40.668Z,20.47
2018-10-16T08:59:09.420Z,20.78
2018-10-16T09:01:38.053Z,20.92
2018-10-16T09:04:06.811Z,21.22
2018-10-16T09:06:35.620Z,21.46
2018-10-16T09:09:05.399Z,21.74
2018-10-16T09:11:33.960Z,21.88
2018-10-16T09:14:02.659Z,22.00
2018-10-16T09:16:31.187Z,22.23
2018-10-16T09:18:59.743Z,22.38
2018-10-16T09:21:28.576Z,22.59
2018-10-16T09:23:57.128Z,22.73
2018-10-16T09:26:25.715Z,22.91
2018-10-16T09:28:54.371Z,22.81
2018-10-16T09:31:22.939Z,22.88
2018-10-16T09:33:51.516Z,22.90
2018-10-16T09:36:20.147Z,23.18
2018-10-16T09:38:48.711Z,23.56
2018-10-16T09:41:17.272Z,24.17
2018-10-16T09:43:45.864Z,24.78
2018-10-16T09:46:14.451Z,25.34
2018-10-16T09:48:43.027Z,25.63
2018-10-16T09:51:12.055Z,26.33
2018-10-16T09:53:40.596Z,26.62
2018-10-16T09:56:09.192Z,27.13
2018-10-16T09:58:37.786Z,27.56
2018-10-16T10:01:11.634Z,28.07
2018-10-16T10:03:40.240Z,27.95
2018-10-16T10:06:08.795Z,28.47
2018-10-16T10:08:37.352Z,28.37
2018-10-16T10:11:06.485Z,28.22
2018-10-16T10:13:35.017Z,28.11
2018-10-16T10:16:03.624Z,28.14
2018-10-16T10:18:32.214Z,28.01
2018-10-16T10:21:00.767Z,28.30
2018-10-16T10:23:29.401Z,28.22
2018-10-16T10:25:58.023Z,28.23
2018-10-16T10:28:26.599Z,28.37
2018-10-16T10:30:55.160Z,28.66
2018-10-16T10:33:23.836Z,28.33
2018-10-16T10:35:52.420Z,27.92
2018-10-16T10:38:20.984Z,27.82
2018-10-16T10:40:49.596Z,28.11
2018-10-16T10:43:18.151Z,28.11
2018-10-16T10:45:46.718Z,27.91
2018-10-16T10:48:15.423Z,28.04
2018-10-16T10:50:44.160Z,28.06
2018-10-16T10:53:12.600Z,27.92
2018-10-16T10:55:41.196Z,27.22
2018-10-16T10:58:09.868Z,26.87
2018-10-16T11:00:38.420Z,26.87
2018-10-16T11:03:07.092Z,26.70
2018-10-16T11:05:35.628Z,27.43
2018-10-16T11:08:04.199Z,28.46
2018-10-16T11:10:32.776Z,29.39
2018-10-16T11:13:02.132Z,30.90
2018-10-16T11:15:30.702Z,32.51
2018-10-16T11:17:59.384Z,33.78
2018-10-16T11:20:27.951Z,33.52
2018-10-16T11:22:56.512Z,35.21
2018-10-16T11:25:25.144Z,36.09
2018-10-16T11:27:53.723Z,37.03
2018-10-16T11:30:22.360Z,37.33
2018-10-16T11:32:51.003Z,38.50
2018-10-16T11:35:19.613Z,39.43
2018-10-16T11:37:48.217Z,40.13
2018-10-16T11:40:16.930Z,39.17
2018-10-16T11:42:45.531Z,40.54
2018-10-16T11:45:14.180Z,41.52
2018-10-16T11:47:42.836Z,38.58
2018-10-16T11:50:12.397Z,38.63
2018-10-16T11:52:41.428Z,39.37
2018-10-16T11:55:10.684Z,39.03
2018-10-16T11:57:39.386Z,37.15
2018-10-16T12:00:11.621Z,35.03
2018-10-16T12:02:40.281Z,32.32
2018-10-16T12:05:08.797Z,30.44
2018-10-16T12:07:37.487Z,29.14
2018-10-16T12:10:06.476Z,28.75
2018-10-16T12:12:35.052Z,28.34
2018-10-16T12:15:03.671Z,27.84
2018-10-16T12:17:37.452Z,27.57
2018-10-16T12:20:10.951Z,26.68
2018-10-16T12:22:39.522Z,26.61
2018-10-16T12:25:08.593Z,26.67
2018-10-16T12:27:37.140Z,26.40
2018-10-16T12:30:06.932Z,26.48
2018-10-16T12:32:35.820Z,26.11
2018-10-16T12:35:04.600Z,26.14
2018-10-16T12:37:33.171Z,25.96
2018-10-16T12:40:01.775Z,25.90
2018-10-16T12:42:30.376Z,25.57
2018-10-16T12:44:58.979Z,25.51
2018-10-16T12:47:27.600Z,25.45
2018-10-16T12:49:56.199Z,25.47
2018-10-16T12:52:24.760Z,25.58
2018-10-16T12:54:53.337Z,25.56
2018-10-16T12:57:21.986Z,25.67
2018-10-16T12:59:50.633Z,25.77
2018-10-16T13:02:19.149Z,25.60
2018-10-16T13:04:48.447Z,25.58
2018-10-16T13:07:24.128Z,25.56
2018-10-16T13:09:52.791Z,25.62
2018-10-16T13:12:21.420Z,25.54
2018-10-16T13:14:50.008Z,25.59
2018-10-16T13:17:18.790Z,25.57
2018-10-16T13:19:47.340Z,25.55
2018-10-16T13:22:15.930Z,25.41
2018-10-16T13:24:44.623Z,25.39
2018-10-16T13:27:13.227Z,25.36
2018-10-16T13:29:41.951Z,25.22
2018-10-16T13:32:10.663Z,25.09
2018-10-16T13:34:39.267Z,25.21
2018-10-16T13:37:07.903Z,25.21
2018-10-16T13:39:36.656Z,25.14
2018-10-16T13:42:05.328Z,25.20
2018-10-16T13:44:33.896Z,25.11
2018-10-16T13:47:02.596Z,25.12
2018-10-16T13:49:31.183Z,24.95
2018-10-16T13:51:59.830Z,25.11
2018-10-16T13:54:28.395Z,25.13
2018-10-16T13:56:57.027Z,25.16
2018-10-16T13:59:25.572Z,25.26
2018-10-16T14:01:54.303Z,25.04
2018-10-16T14:04:22.871Z,25.04
2018-10-16T14:06:51.444Z,25.05
2018-10-16T14:09:20.289Z,25.13
2018-10-16T14:11:48.868Z,25.07
2018-10-16T14:14:17.509Z,25.14
2018-10-16T14:16:46.320Z,25.13
2018-10-16T14:19:25.748Z,25.01
2018-10-16T14:22:01.366Z,24.96
2018-10-16T14:24:32.067Z,25.01
2018-10-16T14:27:04.656Z,24.91
2018-10-16T14:29:37.148Z,24.90
2018-10-16T14:32:07.042Z,24.89
2018-10-16T14:34:39.224Z,24.90
2018-10-16T14:37:10.924Z,24.90
2018-10-16T14:39:41.322Z,24.81
2018-10-16T14:42:12.130Z,24.79
2018-10-16T14:44:40.876Z,24.74
2018-10-16T14:47:13.425Z,24.73
2018-10-16T14:49:47.028Z,24.79
2018-10-16T14:52:17.764Z,24.71
2018-10-16T14:54:48.878Z,24.66
2018-10-16T14:57:19.446Z,24.64
2018-10-16T14:59:52.064Z,24.72
2018-10-16T15:02:25.152Z,24.68
2018-10-16T15:04:56.844Z,24.69
2018-10-16T15:07:26.635Z,24.64
2018-10-16T15:09:58.918Z,24.65
2018-10-16T15:12:35.025Z,24.67
2018-10-16T15:15:07.442Z,24.67
2018-10-16T15:17:43.519Z,24.59
2018-10-16T15:20:15.352Z,24.58
2018-10-16T15:22:45.563Z,24.58
2018-10-16T15:25:18.676Z,24.57
2018-10-16T15:27:50.926Z,24.58
2018-10-16T15:30:22.288Z,24.50
2018-10-16T15:32:52.296Z,24.47
2018-10-16T15:35:24.274Z,24.50
2018-10-16T15:37:53.635Z,24.53
2018-10-16T15:40:24.500Z,24.50
2018-10-16T15:42:55.521Z,24.43
2018-10-16T15:45:27.929Z,24.37
2018-10-16T15:47:57.575Z,24.38
2018-10-16T15:50:29.390Z,24.22
2018-10-16T15:53:02.440Z,24.22
2018-10-16T15:55:34.319Z,24.14
2018-10-16T15:58:03.058Z,24.10
2018-10-16T16:00:35.348Z,24.04
2018-10-16T16:03:04.552Z,23.98
2018-10-16T16:05:36.079Z,23.94
2018-10-16T16:08:05.267Z,23.89
2018-10-16T16:10:34.495Z,23.86
2018-10-16T16:13:08.637Z,23.79
2018-10-16T16:15:37.332Z,23.71
2018-10-16T16:18:06.484Z,23.60
2018-10-16T16:20:35.092Z,23.51
2018-10-16T16:23:03.680Z,23.41
2018-10-16T16:25:32.285Z,23.31
2018-10-16T16:28:01.274Z,23.26
2018-10-16T16:30:29.962Z,23.22
2018-10-16T16:32:58.552Z,23.14
2018-10-16T16:35:27.515Z,23.08
2018-10-16T16:37:56.164Z,22.99
2018-10-16T16:40:24.733Z,22.94
2018-10-16T16:42:53.417Z,22.86
2018-10-16T16:45:22.004Z,22.78
2018-10-16T16:47:50.584Z,22.67
2018-10-16T16:50:19.208Z,22.60
2018-10-16T16:52:47.776Z,22.53
2018-10-16T16:55:16.684Z,22.46
2018-10-16T16:57:45.312Z,22.38
2018-10-16T17:00:14.960Z,22.28
2018-10-16T17:02:45.052Z,22.24
2018-10-16T17:05:14.354Z,22.19
2018-10-16T17:07:43.736Z,22.13
2018-10-16T17:10:12.556Z,22.09
2018-10-16T17:12:41.672Z,22.04
2018-10-16T17:15:13.254Z,21.97
2018-10-16T17:17:43.345Z,22.03
2018-10-16T17:20:13.019Z,21.92
2018-10-16T17:22:41.563Z,21.82
2018-10-16T17:25:13.331Z,21.60
2018-10-16T17:27:41.887Z,21.63
2018-10-16T17:30:12.945Z,21.49
2018-10-16T17:32:42.292Z,21.41
2018-10-16T17:35:11.888Z,21.27
2018-10-16T17:37:41.072Z,21.21
2018-10-16T17:40:12.080Z,21.17
2018-10-16T17:42:40.755Z,21.04
2018-10-16T17:45:11.376Z,20.95
2018-10-16T17:47:39.991Z,20.90
2018-10-16T17:50:11.374Z,20.84
2018-10-16T17:52:40.256Z,20.80
2018-10-16T17:55:09.688Z,20.75
2018-10-16T17:57:38.400Z,20.76
2018-10-16T18:00:09.860Z,20.72
2018-10-16T18:02:38.428Z,20.69
2018-10-16T18:05:07.103Z,20.70
2018-10-16T18:07:35.728Z,20.63
2018-10-16T18:10:04.336Z,20.61
2018-10-16T18:12:32.928Z,20.63
2018-10-16T18:15:01.597Z,20.62
2018-10-16T18:17:30.187Z,20.61
2018-10-16T18:19:58.795Z,20.56
2018-10-16T18:22:27.511Z,20.57
2018-10-16T18:24:56.155Z,20.54
2018-10-16T18:27:24.737Z,20.48
2018-10-16T18:29:53.531Z,20.40
2018-10-16T18:32:22.056Z,20.31
2018-10-16T18:34:50.636Z,20.26
2018-10-16T18:37:19.295Z,20.20
2018-10-16T18:39:47.929Z,20.14
2018-10-16T18:42:16.466Z,20.08
2018-10-16T18:44:45.052Z,20.03
2018-10-16T18:47:13.656Z,20.00
2018-10-16T18:49:42.276Z,19.93
2018-10-16T18:52:10.967Z,19.86
2018-10-16T18:54:39.523Z,19.85
2018-10-16T18:57:08.367Z,19.80
2018-10-16T18:59:36.940Z,19.79
2018-10-16T19:02:05.684Z,19.80
2018-10-16T19:04:34.266Z,19.72
2018-10-16T19:07:03.355Z,19.63
2018-10-16T19:09:31.924Z,19.62
2018-10-16T19:12:00.491Z,19.62
2018-10-16T19:14:29.211Z,19.61
2018-10-16T19:16:57.879Z,19.59
2018-10-16T19:19:26.447Z,19.50
2018-10-16T19:21:55.055Z,19.47
2018-10-16T19:24:23.628Z,19.43
2018-10-16T19:26:52.234Z,19.37
2018-10-16T19:29:20.943Z,19.32
2018-10-16T19:31:49.673Z,19.27
2018-10-16T19:34:18.284Z,19.23
2018-10-16T19:36:47.008Z,19.13
2018-10-16T19:39:15.627Z,19.02
2018-10-16T19:41:44.172Z,18.90
2018-10-16T19:44:12.824Z,18.82
2018-10-16T19:46:41.423Z,18.78
2018-10-16T19:49:10.264Z,18.75
2018-10-16T19:51:38.966Z,18.71
2018-10-16T19:54:07.584Z,18.64
2018-10-16T19:56:36.147Z,18.56
2018-10-16T19:59:04.780Z,18.50
2018-10-16T20:01:33.351Z,18.46
2018-10-16T20:04:01.974Z,18.43
2018-10-16T20:06:30.728Z,18.39
2018-10-16T20:08:59.414Z,18.36
2018-10-16T20:11:27.980Z,18.31
2018-10-16T20:13:56.648Z,18.32
2018-10-16T20:16:25.457Z,18.30
2018-10-16T20:18:54.234Z,18.19
2018-10-16T20:21:23.023Z,18.18
2018-10-16T20:23:51.605Z,18.20
2018-10-16T20:26:20.215Z,18.20
2018-10-16T20:28:48.883Z,18.22
2018-10-16T20:31:17.485Z,18.17
2018-10-16T20:33:46.080Z,18.08
2018-10-16T20:36:14.673Z,18.03
2018-10-16T20:38:45.460Z,17.99
2018-10-16T20:41:14.308Z,17.99
2018-10-16T20:43:42.912Z,17.97
2018-10-16T20:46:11.528Z,17.99
2018-10-16T20:48:40.276Z,17.93
2018-10-16T20:51:08.920Z,17.89
2018-10-16T20:53:37.528Z,17.84
2018-10-16T20:56:06.625Z,17.76
2018-10-16T20:58:35.693Z,17.73
2018-10-16T21:01:04.908Z,17.73
2018-10-16T21:03:34.474Z,17.67
2018-10-16T21:06:03.782Z,17.61
2018-10-16T21:08:32.572Z,17.46
2018-10-16T21:11:01.229Z,17.44
2018-10-16T21:13:29.843Z,17.33
2018-10-16T21:16:00.019Z,17.20
2018-10-16T21:18:29.363Z,17.06
2018-10-16T21:20:57.956Z,16.98
2018-10-16T21:23:26.807Z,16.87
2018-10-16T21:25:55.432Z,16.79
2018-10-16T21:28:24.080Z,16.69
2018-10-16T21:30:52.996Z,16.64
2018-10-16T21:33:22.688Z,16.59
2018-10-16T21:35:51.377Z,16.50
2018-10-16T21:38:19.960Z,16.46
2018-10-16T21:40:48.826Z,16.43
2018-10-16T21:43:17.424Z,16.39
2018-10-16T21:45:46.018Z,16.38
2018-10-16T21:48:14.908Z,16.36
2018-10-16T21:50:43.525Z,16.36
2018-10-16T21:53:12.146Z,16.34
2018-10-16T21:55:41.123Z,16.34
2018-10-16T21:58:09.944Z,16.26
2018-10-16T22:00:44.184Z,16.19
2018-10-16T22:03:12.748Z,16.15
2018-10-16T22:05:41.568Z,16.12
2018-10-16T22:08:10.447Z,16.07
2018-10-16T22:10:39.269Z,16.05
2018-10-16T22:13:10.419Z,16.01
2018-10-16T22:15:39.062Z,16.05
2018-10-16T22:18:07.712Z,16.01
2018-10-16T22:20:36.922Z,15.96
2018-10-16T22:23:06.545Z,15.91
2018-10-16T22:25:35.271Z,15.92
2018-10-16T22:28:04.100Z,15.93
2018-10-16T22:30:32.844Z,15.90
2018-10-16T22:33:01.655Z,15.82
2018-10-16T22:35:30.285Z,15.80
2018-10-16T22:37:58.851Z,15.83
2018-10-16T22:40:27.440Z,15.85
2018-10-16T22:42:56.251Z,15.84
2018-10-16T22:45:25.216Z,15.82
2018-10-16T22:47:53.805Z,15.85
2018-10-16T22:50:22.847Z,15.77
2018-10-16T22:52:51.454Z,15.76
2018-10-16T22:55:20.061Z,15.69
2018-10-16T22:57:48.840Z,15.63
2018-10-16T23:00:20.696Z,15.55
2018-10-16T23:02:51.335Z,15.53
2018-10-16T23:05:21.303Z,15.54
2018-10-16T23:07:51.939Z,15.51
2018-10-16T23:10:23.398Z,15.48
2018-10-16T23:12:58.512Z,15.41
2018-10-16T23:15:28.767Z,15.38
2018-10-16T23:17:58.669Z,15.37
2018-10-16T23:20:28.225Z,15.39
2018-10-16T23:22:59.887Z,15.36
2018-10-16T23:25:31.822Z,15.34
2018-10-16T23:28:01.878Z,15.31
2018-10-16T23:30:31.479Z,15.24
2018-10-16T23:33:01.275Z,15.15
2018-10-16T23:35:30.568Z,15.07
2018-10-16T23:37:59.356Z,15.06
2018-10-16T23:40:28.174Z,15.03
2018-10-16T23:42:56.950Z,14.99
2018-10-16T23:45:25.476Z,14.94
2018-10-16T23:47:54.551Z,14.90
2018-10-16T23:50:23.250Z,14.85
2018-10-16T23:52:51.833Z,14.79
2018-10-16T23:55:20.559Z,14.78
2018-10-16T23:57:49.133Z,14.76
